sensor_id;sensor_type;location;lat;lon;timestamp;temperature;humidity
4487;DHT22;2256;48.740;9.106;2024-03-17T00:01:35;6.10;99.90
4487;DHT22;2256;48.740;9.106;2024-03-17T00:04:02;6.10;99.90
4487;DHT22;2256;48.740;9.106;2024-03-17T00:06:29;6.10;99.90
4487;DHT22;2256;48.740;9.106;2024-03-17T00:08:56;6.10;99.90
4487;DHT22;2256;48.740;9.106;2024-03-17T00:11:22;6.10;99.90
4487;DHT22;2256;48.740;9.106;2024-03-17T00:13:49;6.10;99.90
4487;DHT22;2256;48.740;9.106;2024-03-17T00:16:15;6.10;99.90
4487;DHT22;2256;48.740;9.106;2024-03-17T00:18:44;6.10;99.90
4487;DHT22;2256;48.740;9.106;2024-03-17T00:21:11;6.00;99.90
4487;DHT22;2256;48.740;9.106;2024-03-17T00:23:40;5.90;99.90
4487;DHT22;2256;48.740;9.106;2024-03-17T00:26:07;5.90;99.90
4487;DHT22;2256;48.740;9.106;2024-03-17T00:28:34;5.80;99.90
4487;DHT22;2256;48.740;9.106;2024-03-17T00:30:59;5.90;99.90
4487;DHT22;2256;48.740;9.106;2024-03-17T00:33:29;5.90;99.90
4487;DHT22;2256;48.740;9.106;2024-03-17T00:35:55;6.00;99.90
4487;DHT22;2256;48.740;9.106;2024-03-17T00:38:21;6.10;99.90
4487;DHT22;2256;48.740;9.106;2024-03-17T00:40:48;6.10;99.90
4487;DHT22;2256;48.740;9.106;2024-03-17T00:43:16;6.20;99.90
4487;DHT22;2256;48.740;9.106;2024-03-17T00:45:41;6.10;99.90
4487;DHT22;2256;48.740;9.106;2024-03-17T00:48:08;6.10;99.90
4487;DHT22;2256;48.740;9.106;2024-03-17T00:50:35;6.10;99.90
4487;DHT22;2256;48.740;9.106;2024-03-17T00:53:02;6.10;99.90
4487;DHT22;2256;48.740;9.106;2024-03-17T00:55:28;6.10;99.90
4487;DHT22;2256;48.740;9.106;2024-03-17T00:57:56;6.10;99.90
4487;DHT22;2256;48.740;9.106;2024-03-17T01:00:23;6.00;99.90
4487;DHT22;2256;48.740;9.106;2024-03-17T01:02:49;5.90;99.90
4487;DHT22;2256;48.740;9.106;2024-03-17T01:05:16;6.00;99.90
4487;DHT22;2256;48.740;9.106;2024-03-17T01:07:42;6.00;99.90
4487;DHT22;2256;48.740;9.106;2024-03-17T01:10:09;5.90;99.90
4487;DHT22;2256;48.740;9.106;2024-03-17T01:12:35;5.90;99.90
4487;DHT22;2256;48.740;9.106;2024-03-17T01:15:05;5.80;99.90
4487;DHT22;2256;48.740;9.106;2024-03-17T01:17:30;5.80;99.90
4487;DHT22;2256;48.740;9.106;2024-03-17T01:19:57;5.80;99.90
4487;DHT22;2256;48.740;9.106;2024-03-17T01:22:23;5.80;99.90
4487;DHT22;2256;48.740;9.106;2024-03-17T01:24:50;5.80;99.90
4487;DHT22;2256;48.740;9.106;2024-03-17T01:27:16;5.80;99.90
4487;DHT22;2256;48.740;9.106;2024-03-17T01:29:43;5.80;99.90
4487;DHT22;2256;48.740;9.106;2024-03-17T01:32:10;5.80;99.90
4487;DHT22;2256;48.740;9.106;2024-03-17T01:34:37;5.90;99.90
4487;DHT22;2256;48.740;9.106;2024-03-17T01:37:03;5.90;99.90
4487;DHT22;2256;48.740;9.106;2024-03-17T01:39:30;5.90;99.90
4487;DHT22;2256;48.740;9.106;2024-03-17T01:41:57;6.00;99.90
4487;DHT22;2256;48.740;9.106;2024-03-17T01:44:25;6.10;99.90
4487;DHT22;2256;48.740;9.106;2024-03-17T01:46:52;6.10;99.90
4487;DHT22;2256;48.740;9.106;2024-03-17T01:49:21;6.10;99.90
4487;DHT22;2256;48.740;9.106;2024-03-17T01:51:48;6.20;99.90
4487;DHT22;2256;48.740;9.106;2024-03-17T01:54:15;6.30;99.90
4487;DHT22;2256;48.740;9.106;2024-03-17T01:56:42;6.30;99.90
4487;DHT22;2256;48.740;9.106;2024-03-17T01:59:10;6.40;99.90
4487;DHT22;2256;48.740;9.106;2024-03-17T02:01:36;6.40;99.90
4487;DHT22;2256;48.740;9.106;2024-03-17T02:04:03;6.50;99.90
4487;DHT22;2256;48.740;9.106;2024-03-17T02:06:30;6.50;99.90
4487;DHT22;2256;48.740;9.106;2024-03-17T02:08:57;6.50;99.90
4487;DHT22;2256;48.740;9.106;2024-03-17T02:11:27;6.60;99.90
4487;DHT22;2256;48.740;9.106;2024-03-17T02:13:54;6.60;99.90
4487;DHT22;2256;48.740;9.106;2024-03-17T02:16:21;6.50;99.90
4487;DHT22;2256;48.740;9.106;2024-03-17T02:18:47;6.50;99.90
4487;DHT22;2256;48.740;9.106;2024-03-17T02:21:13;6.50;99.90
4487;DHT22;2256;48.740;9.106;2024-03-17T02:23:42;6.50;99.90
4487;DHT22;2256;48.740;9.106;2024-03-17T02:26:08;6.60;99.90
4487;DHT22;2256;48.740;9.106;2024-03-17T02:28:39;6.60;99.90
4487;DHT22;2256;48.740;9.106;2024-03-17T02:31:06;6.60;99.90
4487;DHT22;2256;48.740;9.106;2024-03-17T02:33:33;6.60;99.90
4487;DHT22;2256;48.740;9.106;2024-03-17T02:35:59;6.50;99.90
4487;DHT22;2256;48.740;9.106;2024-03-17T02:38:26;6.50;99.90
4487;DHT22;2256;48.740;9.106;2024-03-17T02:41:08;6.40;99.90
4487;DHT22;2256;48.740;9.106;2024-03-17T02:43:35;6.40;99.90
4487;DHT22;2256;48.740;9.106;2024-03-17T02:46:02;6.50;99.90
4487;DHT22;2256;48.740;9.106;2024-03-17T02:48:30;6.40;99.90
4487;DHT22;2256;48.740;9.106;2024-03-17T02:50:57;6.40;99.90
4487;DHT22;2256;48.740;9.106;2024-03-17T02:53:24;6.30;99.90
4487;DHT22;2256;48.740;9.106;2024-03-17T02:55:50;6.30;99.90
4487;DHT22;2256;48.740;9.106;2024-03-17T02:58:18;6.40;99.90
4487;DHT22;2256;48.740;9.106;2024-03-17T03:00:45;6.30;99.90
4487;DHT22;2256;48.740;9.106;2024-03-17T03:03:11;6.30;99.90
4487;DHT22;2256;48.740;9.106;2024-03-17T03:05:38;6.40;99.90
4487;DHT22;2256;48.740;9.106;2024-03-17T03:08:05;6.40;99.90
4487;DHT22;2256;48.740;9.106;2024-03-17T03:10:32;6.30;99.90
4487;DHT22;2256;48.740;9.106;2024-03-17T03:13:01;6.30;99.90
4487;DHT22;2256;48.740;9.106;2024-03-17T03:15:30;6.30;99.90
4487;DHT22;2256;48.740;9.106;2024-03-17T03:17:58;6.30;99.90
4487;DHT22;2256;48.740;9.106;2024-03-17T03:20:25;6.20;99.90
4487;DHT22;2256;48.740;9.106;2024-03-17T03:22:53;6.30;99.90
4487;DHT22;2256;48.740;9.106;2024-03-17T03:25:20;6.20;99.90
4487;DHT22;2256;48.740;9.106;2024-03-17T03:27:47;6.10;99.90
4487;DHT22;2256;48.740;9.106;2024-03-17T03:30:14;6.10;99.90
4487;DHT22;2256;48.740;9.106;2024-03-17T03:32:43;6.10;99.90
4487;DHT22;2256;48.740;9.106;2024-03-17T03:35:10;6.10;99.90
4487;DHT22;2256;48.740;9.106;2024-03-17T03:37:37;6.10;99.90
4487;DHT22;2256;48.740;9.106;2024-03-17T03:40:05;6.20;99.90
4487;DHT22;2256;48.740;9.106;2024-03-17T03:42:41;6.30;99.90
4487;DHT22;2256;48.740;9.106;2024-03-17T03:45:08;6.20;99.90
4487;DHT22;2256;48.740;9.106;2024-03-17T03:47:38;6.20;99.90
4487;DHT22;2256;48.740;9.106;2024-03-17T03:50:07;6.20;99.90
4487;DHT22;2256;48.740;9.106;2024-03-17T03:52:35;6.20;99.90
4487;DHT22;2256;48.740;9.106;2024-03-17T03:55:03;6.10;99.90
4487;DHT22;2256;48.740;9.106;2024-03-17T03:57:32;6.00;99.90
4487;DHT22;2256;48.740;9.106;2024-03-17T03:59:59;6.00;99.90
4487;DHT22;2256;48.740;9.106;2024-03-17T04:02:26;5.90;99.90
4487;DHT22;2256;48.740;9.106;2024-03-17T04:04:57;5.90;99.90
4487;DHT22;2256;48.740;9.106;2024-03-17T04:07:25;5.90;99.90
4487;DHT22;2256;48.740;9.106;2024-03-17T04:09:52;5.80;99.90
4487;DHT22;2256;48.740;9.106;2024-03-17T04:12:20;5.90;99.90
4487;DHT22;2256;48.740;9.106;2024-03-17T04:14:47;5.80;99.90
4487;DHT22;2256;48.740;9.106;2024-03-17T04:17:18;5.80;99.90
4487;DHT22;2256;48.740;9.106;2024-03-17T04:19:47;5.80;99.90
4487;DHT22;2256;48.740;9.106;2024-03-17T04:22:14;5.80;99.90
4487;DHT22;2256;48.740;9.106;2024-03-17T04:24:43;5.90;99.90
4487;DHT22;2256;48.740;9.106;2024-03-17T04:27:10;5.90;99.90
4487;DHT22;2256;48.740;9.106;2024-03-17T04:29:37;5.90;99.90
4487;DHT22;2256;48.740;9.106;2024-03-17T04:32:04;6.00;99.90
4487;DHT22;2256;48.740;9.106;2024-03-17T04:34:31;6.00;99.90
4487;DHT22;2256;48.740;9.106;2024-03-17T04:36:58;6.10;99.90
4487;DHT22;2256;48.740;9.106;2024-03-17T04:39:25;6.00;99.90
4487;DHT22;2256;48.740;9.106;2024-03-17T04:41:53;6.00;99.90
4487;DHT22;2256;48.740;9.106;2024-03-17T04:44:20;5.90;99.90
4487;DHT22;2256;48.740;9.106;2024-03-17T04:46:47;5.80;99.90
4487;DHT22;2256;48.740;9.106;2024-03-17T04:49:14;5.80;99.90
4487;DHT22;2256;48.740;9.106;2024-03-17T04:51:40;5.80;99.90
4487;DHT22;2256;48.740;9.106;2024-03-17T04:54:07;5.80;99.90
4487;DHT22;2256;48.740;9.106;2024-03-17T04:56:34;5.80;99.90
4487;DHT22;2256;48.740;9.106;2024-03-17T04:59:02;5.90;99.90
4487;DHT22;2256;48.740;9.106;2024-03-17T05:01:30;5.80;99.90
4487;DHT22;2256;48.740;9.106;2024-03-17T05:04:01;5.70;99.90
4487;DHT22;2256;48.740;9.106;2024-03-17T05:06:29;5.70;99.90
4487;DHT22;2256;48.740;9.106;2024-03-17T05:08:56;5.60;99.90
4487;DHT22;2256;48.740;9.106;2024-03-17T05:11:23;5.70;99.90
4487;DHT22;2256;48.740;9.106;2024-03-17T05:13:50;5.70;99.90
4487;DHT22;2256;48.740;9.106;2024-03-17T05:16:18;5.60;99.90
4487;DHT22;2256;48.740;9.106;2024-03-17T05:18:49;5.50;99.90
4487;DHT22;2256;48.740;9.106;2024-03-17T05:21:15;5.50;99.90
4487;DHT22;2256;48.740;9.106;2024-03-17T05:23:42;5.50;99.90
4487;DHT22;2256;48.740;9.106;2024-03-17T05:26:09;5.50;99.90
4487;DHT22;2256;48.740;9.106;2024-03-17T05:28:36;5.50;99.90
4487;DHT22;2256;48.740;9.106;2024-03-17T05:31:03;5.70;99.90
4487;DHT22;2256;48.740;9.106;2024-03-17T05:33:31;5.70;99.90
4487;DHT22;2256;48.740;9.106;2024-03-17T05:35:59;5.70;99.90
4487;DHT22;2256;48.740;9.106;2024-03-17T05:38:28;5.80;99.90
4487;DHT22;2256;48.740;9.106;2024-03-17T05:40:56;5.80;99.90
4487;DHT22;2256;48.740;9.106;2024-03-17T05:43:23;5.80;99.90
4487;DHT22;2256;48.740;9.106;2024-03-17T05:45:51;5.80;99.90
4487;DHT22;2256;48.740;9.106;2024-03-17T05:48:18;5.70;99.90
4487;DHT22;2256;48.740;9.106;2024-03-17T05:50:46;5.90;99.90
4487;DHT22;2256;48.740;9.106;2024-03-17T05:53:13;6.00;99.90
4487;DHT22;2256;48.740;9.106;2024-03-17T05:55:39;6.00;99.90
4487;DHT22;2256;48.740;9.106;2024-03-17T05:58:08;6.00;99.90
4487;DHT22;2256;48.740;9.106;2024-03-17T06:00:35;6.00;99.90
4487;DHT22;2256;48.740;9.106;2024-03-17T06:03:02;6.00;99.90
4487;DHT22;2256;48.740;9.106;2024-03-17T06:05:31;6.00;99.90
4487;DHT22;2256;48.740;9.106;2024-03-17T06:08:00;5.90;99.90
4487;DHT22;2256;48.740;9.106;2024-03-17T06:10:28;5.80;99.90
4487;DHT22;2256;48.740;9.106;2024-03-17T06:12:55;5.90;99.90
4487;DHT22;2256;48.740;9.106;2024-03-17T06:15:22;6.10;99.90
4487;DHT22;2256;48.740;9.106;2024-03-17T06:17:50;6.40;99.90
4487;DHT22;2256;48.740;9.106;2024-03-17T06:20:18;6.70;99.90
4487;DHT22;2256;48.740;9.106;2024-03-17T06:22:44;7.10;99.90
4487;DHT22;2256;48.740;9.106;2024-03-17T06:25:13;7.30;99.90
4487;DHT22;2256;48.740;9.106;2024-03-17T06:27:40;7.40;99.90
4487;DHT22;2256;48.740;9.106;2024-03-17T06:30:10;7.80;99.90
4487;DHT22;2256;48.740;9.106;2024-03-17T06:32:39;8.20;99.90
4487;DHT22;2256;48.740;9.106;2024-03-17T06:35:07;8.50;99.90
4487;DHT22;2256;48.740;9.106;2024-03-17T06:37:34;8.70;99.90
4487;DHT22;2256;48.740;9.106;2024-03-17T06:40:01;8.60;99.90
4487;DHT22;2256;48.740;9.106;2024-03-17T06:42:30;8.50;99.90
4487;DHT22;2256;48.740;9.106;2024-03-17T06:44:56;8.70;99.90
4487;DHT22;2256;48.740;9.106;2024-03-17T06:47:23;9.00;99.90
4487;DHT22;2256;48.740;9.106;2024-03-17T06:49:51;9.50;99.90
4487;DHT22;2256;48.740;9.106;2024-03-17T06:52:17;10.40;99.90
4487;DHT22;2256;48.740;9.106;2024-03-17T06:54:47;10.90;99.90
4487;DHT22;2256;48.740;9.106;2024-03-17T06:57:15;10.80;99.90
4487;DHT22;2256;48.740;9.106;2024-03-17T06:59:43;10.70;99.90
4487;DHT22;2256;48.740;9.106;2024-03-17T07:02:11;10.60;99.90
4487;DHT22;2256;48.740;9.106;2024-03-17T07:04:42;10.60;99.90
4487;DHT22;2256;48.740;9.106;2024-03-17T07:07:09;11.20;99.90
4487;DHT22;2256;48.740;9.106;2024-03-17T07:09:37;12.10;99.90
4487;DHT22;2256;48.740;9.106;2024-03-17T07:12:05;13.20;99.90
4487;DHT22;2256;48.740;9.106;2024-03-17T07:14:32;13.50;99.90
4487;DHT22;2256;48.740;9.106;2024-03-17T07:17:00;13.20;99.90
4487;DHT22;2256;48.740;9.106;2024-03-17T07:19:27;12.70;99.90
4487;DHT22;2256;48.740;9.106;2024-03-17T07:21:56;12.50;99.90
4487;DHT22;2256;48.740;9.106;2024-03-17T07:24:23;12.40;99.90
4487;DHT22;2256;48.740;9.106;2024-03-17T07:26:50;12.30;99.90
4487;DHT22;2256;48.740;9.106;2024-03-17T07:29:17;12.40;99.90
4487;DHT22;2256;48.740;9.106;2024-03-17T07:31:45;12.90;99.90
4487;DHT22;2256;48.740;9.106;2024-03-17T07:34:13;13.40;99.90
4487;DHT22;2256;48.740;9.106;2024-03-17T07:36:40;13.80;99.90
4487;DHT22;2256;48.740;9.106;2024-03-17T07:39:07;13.70;99.90
4487;DHT22;2256;48.740;9.106;2024-03-17T07:41:34;13.20;99.90
4487;DHT22;2256;48.740;9.106;2024-03-17T07:44:01;13.00;99.90
4487;DHT22;2256;48.740;9.106;2024-03-17T07:46:28;12.80;99.90
4487;DHT22;2256;48.740;9.106;2024-03-17T07:48:54;12.80;99.90
4487;DHT22;2256;48.740;9.106;2024-03-17T07:51:22;12.90;99.90
4487;DHT22;2256;48.740;9.106;2024-03-17T07:53:49;12.90;99.90
4487;DHT22;2256;48.740;9.106;2024-03-17T07:56:18;12.50;99.90
4487;DHT22;2256;48.740;9.106;2024-03-17T07:58:45;12.20;99.90
4487;DHT22;2256;48.740;9.106;2024-03-17T08:01:15;11.90;99.90
4487;DHT22;2256;48.740;9.106;2024-03-17T08:03:44;12.00;99.90
4487;DHT22;2256;48.740;9.106;2024-03-17T08:06:12;11.90;99.90
4487;DHT22;2256;48.740;9.106;2024-03-17T08:08:40;11.80;99.90
4487;DHT22;2256;48.740;9.106;2024-03-17T08:11:07;11.70;99.90
4487;DHT22;2256;48.740;9.106;2024-03-17T08:13:34;11.70;99.90
4487;DHT22;2256;48.740;9.106;2024-03-17T08:16:02;11.90;99.90
4487;DHT22;2256;48.740;9.106;2024-03-17T08:18:29;12.10;99.90
4487;DHT22;2256;48.740;9.106;2024-03-17T08:20:56;12.20;99.90
4487;DHT22;2256;48.740;9.106;2024-03-17T08:23:25;12.40;99.90
4487;DHT22;2256;48.740;9.106;2024-03-17T08:25:54;12.40;99.90
4487;DHT22;2256;48.740;9.106;2024-03-17T08:28:21;12.30;99.90
4487;DHT22;2256;48.740;9.106;2024-03-17T08:30:52;12.40;99.90
4487;DHT22;2256;48.740;9.106;2024-03-17T08:33:19;12.50;99.90
4487;DHT22;2256;48.740;9.106;2024-03-17T08:35:53;12.70;99.90
4487;DHT22;2256;48.740;9.106;2024-03-17T08:38:20;12.90;99.90
4487;DHT22;2256;48.740;9.106;2024-03-17T08:40:49;12.90;99.90
4487;DHT22;2256;48.740;9.106;2024-03-17T08:43:17;12.90;99.90
4487;DHT22;2256;48.740;9.106;2024-03-17T08:45:44;13.00;99.90
4487;DHT22;2256;48.740;9.106;2024-03-17T08:48:11;13.40;99.90
4487;DHT22;2256;48.740;9.106;2024-03-17T08:50:37;14.10;99.90
4487;DHT22;2256;48.740;9.106;2024-03-17T08:53:06;14.90;99.90
4487;DHT22;2256;48.740;9.106;2024-03-17T08:55:33;15.50;99.90
4487;DHT22;2256;48.740;9.106;2024-03-17T08:58:00;16.00;99.90
4487;DHT22;2256;48.740;9.106;2024-03-17T09:00:27;15.90;99.90
4487;DHT22;2256;48.740;9.106;2024-03-17T09:02:55;15.40;99.90
4487;DHT22;2256;48.740;9.106;2024-03-17T09:05:22;15.00;99.90
4487;DHT22;2256;48.740;9.106;2024-03-17T09:07:49;14.80;99.90
4487;DHT22;2256;48.740;9.106;2024-03-17T09:10:16;15.00;99.90
4487;DHT22;2256;48.740;9.106;2024-03-17T09:12:42;14.70;99.90
4487;DHT22;2256;48.740;9.106;2024-03-17T09:15:09;14.70;99.90
4487;DHT22;2256;48.740;9.106;2024-03-17T09:17:38;14.60;99.90
4487;DHT22;2256;48.740;9.106;2024-03-17T09:20:06;14.70;99.90
4487;DHT22;2256;48.740;9.106;2024-03-17T09:22:37;15.30;99.90
4487;DHT22;2256;48.740;9.106;2024-03-17T09:25:05;15.80;99.90
4487;DHT22;2256;48.740;9.106;2024-03-17T09:27:33;15.60;99.90
4487;DHT22;2256;48.740;9.106;2024-03-17T09:30:02;15.30;99.90
4487;DHT22;2256;48.740;9.106;2024-03-17T09:32:32;15.00;99.90
4487;DHT22;2256;48.740;9.106;2024-03-17T09:35:00;14.70;99.90
4487;DHT22;2256;48.740;9.106;2024-03-17T09:37:28;14.70;99.90
4487;DHT22;2256;48.740;9.106;2024-03-17T09:39:56;14.60;99.90
4487;DHT22;2256;48.740;9.106;2024-03-17T09:42:24;14.70;99.90
4487;DHT22;2256;48.740;9.106;2024-03-17T09:44:53;14.70;99.90
4487;DHT22;2256;48.740;9.106;2024-03-17T09:47:21;14.70;99.90
4487;DHT22;2256;48.740;9.106;2024-03-17T09:49:48;14.80;99.90
4487;DHT22;2256;48.740;9.106;2024-03-17T09:52:20;15.00;99.90
4487;DHT22;2256;48.740;9.106;2024-03-17T09:54:53;15.10;99.90
4487;DHT22;2256;48.740;9.106;2024-03-17T09:57:22;15.00;99.80
4487;DHT22;2256;48.740;9.106;2024-03-17T09:59:54;15.00;99.50
4487;DHT22;2256;48.740;9.106;2024-03-17T10:02:21;14.90;99.90
4487;DHT22;2256;48.740;9.106;2024-03-17T10:04:48;15.00;99.20
4487;DHT22;2256;48.740;9.106;2024-03-17T10:07:15;15.00;98.70
4487;DHT22;2256;48.740;9.106;2024-03-17T10:09:43;15.00;98.60
4487;DHT22;2256;48.740;9.106;2024-03-17T10:12:26;14.90;98.60
4487;DHT22;2256;48.740;9.106;2024-03-17T10:15:00;14.80;98.80
4487;DHT22;2256;48.740;9.106;2024-03-17T10:17:30;14.40;99.10
4487;DHT22;2256;48.740;9.106;2024-03-17T10:20:19;14.40;99.30
4487;DHT22;2256;48.740;9.106;2024-03-17T10:23:00;14.40;99.90
4487;DHT22;2256;48.740;9.106;2024-03-17T10:25:28;14.60;99.10
4487;DHT22;2256;48.740;9.106;2024-03-17T10:27:55;14.60;99.00
4487;DHT22;2256;48.740;9.106;2024-03-17T10:30:23;14.60;98.80
4487;DHT22;2256;48.740;9.106;2024-03-17T10:32:56;14.80;99.10
4487;DHT22;2256;48.740;9.106;2024-03-17T10:35:28;14.90;99.10
4487;DHT22;2256;48.740;9.106;2024-03-17T10:37:56;14.80;99.10
4487;DHT22;2256;48.740;9.106;2024-03-17T10:40:25;15.10;98.80
4487;DHT22;2256;48.740;9.106;2024-03-17T10:42:53;15.40;98.60
4487;DHT22;2256;48.740;9.106;2024-03-17T10:45:20;15.60;99.00
4487;DHT22;2256;48.740;9.106;2024-03-17T10:47:49;15.80;98.50
4487;DHT22;2256;48.740;9.106;2024-03-17T10:50:18;15.80;97.80
4487;DHT22;2256;48.740;9.106;2024-03-17T10:52:46;15.60;98.30
4487;DHT22;2256;48.740;9.106;2024-03-17T10:55:26;15.60;98.00
4487;DHT22;2256;48.740;9.106;2024-03-17T10:57:58;15.40;97.90
4487;DHT22;2256;48.740;9.106;2024-03-17T11:00:26;15.40;98.30
4487;DHT22;2256;48.740;9.106;2024-03-17T11:02:55;15.40;98.60
4487;DHT22;2256;48.740;9.106;2024-03-17T11:05:24;15.30;98.90
4487;DHT22;2256;48.740;9.106;2024-03-17T11:07:52;15.40;99.40
4487;DHT22;2256;48.740;9.106;2024-03-17T11:10:21;15.30;98.40
4487;DHT22;2256;48.740;9.106;2024-03-17T11:12:50;15.20;98.60
4487;DHT22;2256;48.740;9.106;2024-03-17T11:15:38;15.20;99.40
4487;DHT22;2256;48.740;9.106;2024-03-17T11:18:29;15.10;98.80
4487;DHT22;2256;48.740;9.106;2024-03-17T11:20:58;15.20;99.40
4487;DHT22;2256;48.740;9.106;2024-03-17T11:23:30;15.20;99.90
4487;DHT22;2256;48.740;9.106;2024-03-17T11:25:58;15.40;99.60
4487;DHT22;2256;48.740;9.106;2024-03-17T11:28:47;15.60;99.50
4487;DHT22;2256;48.740;9.106;2024-03-17T11:31:38;15.90;99.50
4487;DHT22;2256;48.740;9.106;2024-03-17T11:34:29;16.10;99.10
4487;DHT22;2256;48.740;9.106;2024-03-17T11:36:56;16.40;98.30
4487;DHT22;2256;48.740;9.106;2024-03-17T11:39:47;16.40;97.50
4487;DHT22;2256;48.740;9.106;2024-03-17T11:42:15;16.30;98.20
4487;DHT22;2256;48.740;9.106;2024-03-17T11:44:43;16.40;98.10
4487;DHT22;2256;48.740;9.106;2024-03-17T11:47:12;16.50;98.20
4487;DHT22;2256;48.740;9.106;2024-03-17T11:49:39;16.70;98.40
4487;DHT22;2256;48.740;9.106;2024-03-17T11:52:10;16.70;97.40
4487;DHT22;2256;48.740;9.106;2024-03-17T11:54:38;16.70;97.40
4487;DHT22;2256;48.740;9.106;2024-03-17T11:57:06;16.60;97.30
4487;DHT22;2256;48.740;9.106;2024-03-17T11:59:33;16.50;97.50
4487;DHT22;2256;48.740;9.106;2024-03-17T12:02:00;16.40;97.00
4487;DHT22;2256;48.740;9.106;2024-03-17T12:04:28;16.40;98.10
4487;DHT22;2256;48.740;9.106;2024-03-17T12:06:56;16.30;98.10
4487;DHT22;2256;48.740;9.106;2024-03-17T12:09:23;16.40;98.30
4487;DHT22;2256;48.740;9.106;2024-03-17T12:11:57;16.30;98.00
4487;DHT22;2256;48.740;9.106;2024-03-17T12:14:23;16.30;98.40
4487;DHT22;2256;48.740;9.106;2024-03-17T12:16:52;16.30;98.20
4487;DHT22;2256;48.740;9.106;2024-03-17T12:19:18;16.30;98.10
4487;DHT22;2256;48.740;9.106;2024-03-17T12:21:48;16.20;98.00
4487;DHT22;2256;48.740;9.106;2024-03-17T12:24:16;16.20;97.60
4487;DHT22;2256;48.740;9.106;2024-03-17T12:26:44;16.10;97.90
4487;DHT22;2256;48.740;9.106;2024-03-17T12:29:24;16.00;97.70
4487;DHT22;2256;48.740;9.106;2024-03-17T12:31:52;16.00;97.70
4487;DHT22;2256;48.740;9.106;2024-03-17T12:34:18;16.10;97.90
4487;DHT22;2256;48.740;9.106;2024-03-17T12:36:47;16.10;97.90
4487;DHT22;2256;48.740;9.106;2024-03-17T12:39:19;16.10;97.70
4487;DHT22;2256;48.740;9.106;2024-03-17T12:41:45;16.10;97.60
4487;DHT22;2256;48.740;9.106;2024-03-17T12:44:22;16.10;97.60
4487;DHT22;2256;48.740;9.106;2024-03-17T12:46:48;16.00;97.50
4487;DHT22;2256;48.740;9.106;2024-03-17T12:49:21;16.00;97.90
4487;DHT22;2256;48.740;9.106;2024-03-17T12:51:48;16.10;97.60
4487;DHT22;2256;48.740;9.106;2024-03-17T12:54:15;16.20;97.70
4487;DHT22;2256;48.740;9.106;2024-03-17T12:56:43;16.20;97.80
4487;DHT22;2256;48.740;9.106;2024-03-17T12:59:37;16.20;97.70
4487;DHT22;2256;48.740;9.106;2024-03-17T13:02:21;16.30;97.60
4487;DHT22;2256;48.740;9.106;2024-03-17T13:05:07;16.10;97.00
4487;DHT22;2256;48.740;9.106;2024-03-17T13:07:36;16.00;97.10
4487;DHT22;2256;48.740;9.106;2024-03-17T13:10:03;15.90;96.90
4487;DHT22;2256;48.740;9.106;2024-03-17T13:12:33;15.80;97.60
4487;DHT22;2256;48.740;9.106;2024-03-17T13:14:59;15.80;98.10
4487;DHT22;2256;48.740;9.106;2024-03-17T13:17:26;15.90;98.00
4487;DHT22;2256;48.740;9.106;2024-03-17T13:19:54;16.00;97.00
4487;DHT22;2256;48.740;9.106;2024-03-17T13:22:21;15.80;96.80
4487;DHT22;2256;48.740;9.106;2024-03-17T13:24:49;15.80;97.70
4487;DHT22;2256;48.740;9.106;2024-03-17T13:27:16;15.80;97.80
4487;DHT22;2256;48.740;9.106;2024-03-17T13:29:47;15.80;97.00
4487;DHT22;2256;48.740;9.106;2024-03-17T13:32:15;15.60;97.30
4487;DHT22;2256;48.740;9.106;2024-03-17T13:34:42;15.60;97.90
4487;DHT22;2256;48.740;9.106;2024-03-17T13:37:09;15.50;97.90
4487;DHT22;2256;48.740;9.106;2024-03-17T13:39:36;15.60;98.70
4487;DHT22;2256;48.740;9.106;2024-03-17T13:42:05;15.70;98.20
4487;DHT22;2256;48.740;9.106;2024-03-17T13:44:33;15.90;98.00
4487;DHT22;2256;48.740;9.106;2024-03-17T13:47:00;15.90;98.10
4487;DHT22;2256;48.740;9.106;2024-03-17T13:49:29;16.10;97.90
4487;DHT22;2256;48.740;9.106;2024-03-17T13:51:55;16.20;98.30
4487;DHT22;2256;48.740;9.106;2024-03-17T13:54:22;16.20;98.10
4487;DHT22;2256;48.740;9.106;2024-03-17T13:56:49;16.20;97.60
4487;DHT22;2256;48.740;9.106;2024-03-17T13:59:17;16.30;98.00
4487;DHT22;2256;48.740;9.106;2024-03-17T14:01:44;16.20;97.40
4487;DHT22;2256;48.740;9.106;2024-03-17T14:04:13;16.20;97.20
4487;DHT22;2256;48.740;9.106;2024-03-17T14:06:41;16.10;97.70
4487;DHT22;2256;48.740;9.106;2024-03-17T14:09:08;16.10;97.40
4487;DHT22;2256;48.740;9.106;2024-03-17T14:11:36;16.00;97.90
4487;DHT22;2256;48.740;9.106;2024-03-17T14:14:04;16.10;97.20
4487;DHT22;2256;48.740;9.106;2024-03-17T14:16:32;16.00;97.30
4487;DHT22;2256;48.740;9.106;2024-03-17T14:18:59;15.90;97.80
4487;DHT22;2256;48.740;9.106;2024-03-17T14:21:26;15.70;97.40
4487;DHT22;2256;48.740;9.106;2024-03-17T14:23:53;15.60;97.50
4487;DHT22;2256;48.740;9.106;2024-03-17T14:26:21;15.50;97.50
4487;DHT22;2256;48.740;9.106;2024-03-17T14:28:47;15.60;98.30
4487;DHT22;2256;48.740;9.106;2024-03-17T14:31:15;15.50;98.10
4487;DHT22;2256;48.740;9.106;2024-03-17T14:33:44;15.60;97.80
4487;DHT22;2256;48.740;9.106;2024-03-17T14:36:11;15.70;98.10
4487;DHT22;2256;48.740;9.106;2024-03-17T14:38:37;15.80;97.70
4487;DHT22;2256;48.740;9.106;2024-03-17T14:41:04;15.70;97.20
4487;DHT22;2256;48.740;9.106;2024-03-17T14:43:31;15.70;98.20
4487;DHT22;2256;48.740;9.106;2024-03-17T14:46:00;15.50;97.80
4487;DHT22;2256;48.740;9.106;2024-03-17T14:48:27;15.40;98.20
4487;DHT22;2256;48.740;9.106;2024-03-17T14:50:55;15.40;98.10
4487;DHT22;2256;48.740;9.106;2024-03-17T14:53:22;15.50;98.50
4487;DHT22;2256;48.740;9.106;2024-03-17T14:55:49;15.50;98.50
4487;DHT22;2256;48.740;9.106;2024-03-17T14:58:16;15.60;98.30
4487;DHT22;2256;48.740;9.106;2024-03-17T15:00:42;15.60;98.20
4487;DHT22;2256;48.740;9.106;2024-03-17T15:03:09;15.70;98.40
4487;DHT22;2256;48.740;9.106;2024-03-17T15:05:36;15.70;98.60
4487;DHT22;2256;48.740;9.106;2024-03-17T15:08:05;15.70;98.60
4487;DHT22;2256;48.740;9.106;2024-03-17T15:10:33;15.60;98.30
4487;DHT22;2256;48.740;9.106;2024-03-17T15:13:00;15.60;97.90
4487;DHT22;2256;48.740;9.106;2024-03-17T15:15:27;15.50;98.10
4487;DHT22;2256;48.740;9.106;2024-03-17T15:17:54;15.40;97.60
4487;DHT22;2256;48.740;9.106;2024-03-17T15:20:21;15.20;98.10
4487;DHT22;2256;48.740;9.106;2024-03-17T15:22:49;14.90;98.40
4487;DHT22;2256;48.740;9.106;2024-03-17T15:25:18;14.90;98.70
4487;DHT22;2256;48.740;9.106;2024-03-17T15:27:47;14.90;98.30
4487;DHT22;2256;48.740;9.106;2024-03-17T15:30:15;14.80;98.50
4487;DHT22;2256;48.740;9.106;2024-03-17T15:32:44;14.80;98.30
4487;DHT22;2256;48.740;9.106;2024-03-17T15:35:11;14.70;98.70
4487;DHT22;2256;48.740;9.106;2024-03-17T15:37:38;14.50;99.20
4487;DHT22;2256;48.740;9.106;2024-03-17T15:40:06;14.70;98.70
4487;DHT22;2256;48.740;9.106;2024-03-17T15:42:34;14.70;99.00
4487;DHT22;2256;48.740;9.106;2024-03-17T15:45:01;14.80;98.90
4487;DHT22;2256;48.740;9.106;2024-03-17T15:47:28;14.70;99.10
4487;DHT22;2256;48.740;9.106;2024-03-17T15:49:55;14.50;99.60
4487;DHT22;2256;48.740;9.106;2024-03-17T15:52:21;14.40;99.70
4487;DHT22;2256;48.740;9.106;2024-03-17T15:54:48;14.30;99.80
4487;DHT22;2256;48.740;9.106;2024-03-17T15:57:15;14.00;99.90
4487;DHT22;2256;48.740;9.106;2024-03-17T15:59:45;13.90;99.90
4487;DHT22;2256;48.740;9.106;2024-03-17T16:02:12;13.80;99.90
4487;DHT22;2256;48.740;9.106;2024-03-17T16:04:39;13.70;99.90
4487;DHT22;2256;48.740;9.106;2024-03-17T16:07:06;13.60;99.90
4487;DHT22;2256;48.740;9.106;2024-03-17T16:09:34;13.50;99.90
4487;DHT22;2256;48.740;9.106;2024-03-17T16:12:02;13.40;99.90
4487;DHT22;2256;48.740;9.106;2024-03-17T16:14:29;13.40;99.90
4487;DHT22;2256;48.740;9.106;2024-03-17T16:16:57;13.30;99.90